sensor_id;sensor_type;location;lat;lon;timestamp;pressure;altitude;pressure_sealevel;temperature;humidity
38614;BME280;24369;49.480;8.488;2022-07-23T00:01:11;100107.81;;;33.84;23.74
38614;BME280;24369;49.480;8.488;2022-07-23T00:03:36;100225.34;;;34.48;23.88
38614;BME280;24369;49.480;8.488;2022-07-23T00:06:02;100286.06;;;34.84;23.66
38614;BME280;24369;49.480;8.488;2022-07-23T00:08:27;100352.19;;;35.25;23.80
38614;BME280;24369;49.480;8.488;2022-07-23T00:10:53;100273.25;;;34.45;24.07
38614;BME280;24369;49.480;8.488;2022-07-23T00:13:18;100414.28;;;35.59;23.91
38614;BME280;24369;49.480;8.488;2022-07-23T00:15:43;100424.06;;;35.12;24.26
38614;BME280;24369;49.480;8.488;2022-07-23T00:18:09;100439.16;;;34.70;24.80
38614;BME280;24369;49.480;8.488;2022-07-23T00:20:34;100265.00;;;34.16;24.42
38614;BME280;24369;49.480;8.488;2022-07-23T00:23:00;100136.72;;;33.56;24.64
38614;BME280;24369;49.480;8.488;2022-07-23T00:25:26;99964.22;;;32.55;24.28
38614;BME280;24369;49.480;8.488;2022-07-23T00:27:52;100379.56;;;35.25;24.27
38614;BME280;24369;49.480;8.488;2022-07-23T00:30:17;100121.94;;;33.57;24.50
38614;BME280;24369;49.480;8.488;2022-07-23T00:32:51;100132.56;;;33.59;24.32
38614;BME280;24369;49.480;8.488;2022-07-23T00:35:20;100397.75;;;35.16;24.27
38614;BME280;24369;49.480;8.488;2022-07-23T00:37:46;100335.88;;;34.81;24.71
38614;BME280;24369;49.480;8.488;2022-07-23T00:40:11;100305.38;;;34.29;24.77
38614;BME280;24369;49.480;8.488;2022-07-23T00:42:37;100167.94;;;33.79;24.52
38614;BME280;24369;49.480;8.488;2022-07-23T00:45:04;100276.50;;;34.52;24.29
38614;BME280;24369;49.480;8.488;2022-07-23T00:47:30;100396.66;;;35.12;24.35
38614;BME280;24369;49.480;8.488;2022-07-23T00:49:55;100277.47;;;34.27;24.83
38614;BME280;24369;49.480;8.488;2022-07-23T00:52:21;100416.13;;;35.11;24.24
38614;BME280;24369;49.480;8.488;2022-07-23T00:54:46;100273.91;;;33.87;24.98
38614;BME280;24369;49.480;8.488;2022-07-23T00:57:12;100290.53;;;34.01;24.83
38614;BME280;24369;49.480;8.488;2022-07-23T00:59:40;100358.47;;;34.23;25.28
38614;BME280;24369;49.480;8.488;2022-07-23T01:02:06;100398.66;;;34.67;25.10
38614;BME280;24369;49.480;8.488;2022-07-23T01:04:32;100346.06;;;34.36;25.20
38614;BME280;24369;49.480;8.488;2022-07-23T01:06:57;100384.56;;;34.55;24.67
38614;BME280;24369;49.480;8.488;2022-07-23T01:09:23;100296.69;;;34.17;24.99
38614;BME280;24369;49.480;8.488;2022-07-23T01:11:50;100321.84;;;34.19;24.75
38614;BME280;24369;49.480;8.488;2022-07-23T01:14:18;100291.94;;;33.94;24.56
38614;BME280;24369;49.480;8.488;2022-07-23T01:16:48;100434.34;;;34.91;24.95
38614;BME280;24369;49.480;8.488;2022-07-23T01:19:14;99940.78;;;31.64;25.58
38614;BME280;24369;49.480;8.488;2022-07-23T01:21:48;100414.81;;;34.69;25.13
38614;BME280;24369;49.480;8.488;2022-07-23T01:24:14;100134.81;;;32.87;25.49
38614;BME280;24369;49.480;8.488;2022-07-23T01:26:45;100313.72;;;34.09;25.35
38614;BME280;24369;49.480;8.488;2022-07-23T01:29:11;100335.75;;;34.28;25.24
38614;BME280;24369;49.480;8.488;2022-07-23T01:31:36;100396.22;;;34.66;25.28
38614;BME280;24369;49.480;8.488;2022-07-23T01:34:02;100390.28;;;34.58;25.44
38614;BME280;24369;49.480;8.488;2022-07-23T01:36:28;100388.59;;;34.63;25.43
38614;BME280;24369;49.480;8.488;2022-07-23T01:38:53;100187.88;;;33.30;25.26
38614;BME280;24369;49.480;8.488;2022-07-23T01:41:19;100400.94;;;34.50;25.30
38614;BME280;24369;49.480;8.488;2022-07-23T01:43:45;100189.09;;;32.93;25.90
38614;BME280;24369;49.480;8.488;2022-07-23T01:46:10;100395.47;;;34.50;25.35
38614;BME280;24369;49.480;8.488;2022-07-23T01:48:36;100199.97;;;33.14;25.42
38614;BME280;24369;49.480;8.488;2022-07-23T01:51:01;100418.00;;;34.36;25.66
38614;BME280;24369;49.480;8.488;2022-07-23T01:53:27;100409.94;;;34.60;25.59
38614;BME280;24369;49.480;8.488;2022-07-23T01:55:52;100383.56;;;34.30;25.25
38614;BME280;24369;49.480;8.488;2022-07-23T01:58:18;100419.28;;;34.54;25.20
38614;BME280;24369;49.480;8.488;2022-07-23T02:00:43;100355.81;;;34.08;25.33
38614;BME280;24369;49.480;8.488;2022-07-23T02:03:09;100353.31;;;34.17;25.24
38614;BME280;24369;49.480;8.488;2022-07-23T02:05:34;100391.75;;;34.35;25.77
38614;BME280;24369;49.480;8.488;2022-07-23T02:08:00;100263.19;;;33.41;25.56
38614;BME280;24369;49.480;8.488;2022-07-23T02:10:26;100043.09;;;32.26;25.43
38614;BME280;24369;49.480;8.488;2022-07-23T02:12:51;100412.97;;;34.59;25.36
38614;BME280;24369;49.480;8.488;2022-07-23T02:15:17;100230.47;;;33.36;25.46
38614;BME280;24369;49.480;8.488;2022-07-23T02:17:43;100348.13;;;34.15;25.24
38614;BME280;24369;49.480;8.488;2022-07-23T02:20:09;100435.69;;;34.49;25.56
38614;BME280;24369;49.480;8.488;2022-07-23T02:22:35;100128.88;;;32.69;25.38
38614;BME280;24369;49.480;8.488;2022-07-23T02:25:01;100334.63;;;33.79;25.76
38614;BME280;24369;49.480;8.488;2022-07-23T02:27:26;100308.66;;;33.82;25.74
38614;BME280;24369;49.480;8.488;2022-07-23T02:29:53;100416.94;;;34.32;25.58
38614;BME280;24369;49.480;8.488;2022-07-23T02:32:18;100190.75;;;32.89;25.61
38614;BME280;24369;49.480;8.488;2022-07-23T02:34:44;100402.25;;;34.13;25.67
38614;BME280;24369;49.480;8.488;2022-07-23T02:37:09;100222.06;;;33.23;25.91
38614;BME280;24369;49.480;8.488;2022-07-23T02:39:35;100416.38;;;34.30;26.00
38614;BME280;24369;49.480;8.488;2022-07-23T02:42:01;100418.31;;;34.30;25.56
38614;BME280;24369;49.480;8.488;2022-07-23T02:44:27;100416.44;;;34.25;25.98
38614;BME280;24369;49.480;8.488;2022-07-23T02:46:52;100223.94;;;33.27;25.62
38614;BME280;24369;49.480;8.488;2022-07-23T02:49:18;100224.50;;;33.29;25.91
38614;BME280;24369;49.480;8.488;2022-07-23T02:51:43;100023.81;;;31.81;25.79
38614;BME280;24369;49.480;8.488;2022-07-23T02:54:08;100054.59;;;32.02;25.62
38614;BME280;24369;49.480;8.488;2022-07-23T02:56:34;100294.59;;;33.49;25.91
38614;BME280;24369;49.480;8.488;2022-07-23T02:58:59;100345.03;;;33.77;25.81
38614;BME280;24369;49.480;8.488;2022-07-23T03:01:25;100357.41;;;33.44;26.18
38614;BME280;24369;49.480;8.488;2022-07-23T03:03:51;99905.84;;;30.43;26.33
38614;BME280;24369;49.480;8.488;2022-07-23T03:06:16;100298.78;;;32.90;26.20
38614;BME280;24369;49.480;8.488;2022-07-23T03:08:42;100408.41;;;33.69;26.13
38614;BME280;24369;49.480;8.488;2022-07-23T03:11:08;100313.78;;;33.08;26.38
38614;BME280;24369;49.480;8.488;2022-07-23T03:13:37;100515.72;;;34.16;26.01
38614;BME280;24369;49.480;8.488;2022-07-23T03:16:03;100271.56;;;32.44;26.28
38614;BME280;24369;49.480;8.488;2022-07-23T03:18:28;100398.59;;;33.68;26.04
38614;BME280;24369;49.480;8.488;2022-07-23T03:20:54;100473.94;;;34.05;26.18
38614;BME280;24369;49.480;8.488;2022-07-23T03:23:19;100416.66;;;33.38;26.79
38614;BME280;24369;49.480;8.488;2022-07-23T03:25:44;100305.91;;;32.45;26.51
38614;BME280;24369;49.480;8.488;2022-07-23T03:28:12;100375.50;;;33.09;26.50
38614;BME280;24369;49.480;8.488;2022-07-23T03:30:37;100484.03;;;33.99;26.31
38614;BME280;24369;49.480;8.488;2022-07-23T03:33:02;100502.63;;;33.97;26.76
38614;BME280;24369;49.480;8.488;2022-07-23T03:35:28;100099.28;;;31.61;26.55
38614;BME280;24369;49.480;8.488;2022-07-23T03:37:53;100483.25;;;33.88;26.90
38614;BME280;24369;49.480;8.488;2022-07-23T03:40:18;100419.16;;;33.30;26.81
38614;BME280;24369;49.480;8.488;2022-07-23T03:42:44;100430.31;;;33.64;26.91
38614;BME280;24369;49.480;8.488;2022-07-23T03:45:11;100221.94;;;32.37;27.17
38614;BME280;24369;49.480;8.488;2022-07-23T03:47:36;100259.84;;;32.49;27.43
38614;BME280;24369;49.480;8.488;2022-07-23T03:50:03;100410.66;;;33.41;27.24
38614;BME280;24369;49.480;8.488;2022-07-23T03:52:28;100275.91;;;32.66;27.41
38614;BME280;24369;49.480;8.488;2022-07-23T03:54:53;100305.91;;;32.61;27.80
38614;BME280;24369;49.480;8.488;2022-07-23T03:57:19;100318.97;;;32.94;27.58
38614;BME280;24369;49.480;8.488;2022-07-23T03:59:44;100497.50;;;33.70;27.54
38614;BME280;24369;49.480;8.488;2022-07-23T04:02:09;100301.56;;;32.55;27.48
38614;BME280;24369;49.480;8.488;2022-07-23T04:04:35;100389.66;;;32.91;27.13
38614;BME280;24369;49.480;8.488;2022-07-23T04:07:00;100390.78;;;32.95;27.71
38614;BME280;24369;49.480;8.488;2022-07-23T04:09:26;100339.22;;;32.78;28.16
38614;BME280;24369;49.480;8.488;2022-07-23T04:11:51;100266.59;;;32.06;28.60
38614;BME280;24369;49.480;8.488;2022-07-23T04:14:17;100375.47;;;32.94;28.20
38614;BME280;24369;49.480;8.488;2022-07-23T04:16:42;100142.13;;;31.07;28.72
38614;BME280;24369;49.480;8.488;2022-07-23T04:19:08;100270.63;;;31.25;29.85
38614;BME280;24369;49.480;8.488;2022-07-23T04:21:33;100536.28;;;33.41;29.04
38614;BME280;24369;49.480;8.488;2022-07-23T04:23:58;100551.88;;;33.46;29.08
38614;BME280;24369;49.480;8.488;2022-07-23T04:26:24;100549.66;;;33.43;29.14
38614;BME280;24369;49.480;8.488;2022-07-23T04:28:49;100499.41;;;33.24;28.65
38614;BME280;24369;49.480;8.488;2022-07-23T04:31:14;100363.84;;;31.90;29.24
38614;BME280;24369;49.480;8.488;2022-07-23T04:33:40;100539.78;;;33.01;29.26
38614;BME280;24369;49.480;8.488;2022-07-23T04:36:05;100382.75;;;32.27;29.17
38614;BME280;24369;49.480;8.488;2022-07-23T04:38:31;100448.34;;;32.78;29.03
38614;BME280;24369;49.480;8.488;2022-07-23T04:40:57;100499.41;;;33.13;29.03
38614;BME280;24369;49.480;8.488;2022-07-23T04:43:23;100407.91;;;32.49;29.27
38614;BME280;24369;49.480;8.488;2022-07-23T04:45:48;100266.38;;;31.39;29.21
38614;BME280;24369;49.480;8.488;2022-07-23T04:48:13;100488.72;;;32.86;30.17
38614;BME280;24369;49.480;8.488;2022-07-23T04:50:39;100428.66;;;32.56;30.21
38614;BME280;24369;49.480;8.488;2022-07-23T04:53:05;100576.44;;;33.26;30.97
38614;BME280;24369;49.480;8.488;2022-07-23T04:55:30;100392.97;;;31.89;31.37
38614;BME280;24369;49.480;8.488;2022-07-23T04:57:55;100192.38;;;30.52;31.50
38614;BME280;24369;49.480;8.488;2022-07-23T05:00:21;100482.28;;;32.40;31.63
38614;BME280;24369;49.480;8.488;2022-07-23T05:02:46;100315.25;;;31.24;32.42
38614;BME280;24369;49.480;8.488;2022-07-23T05:05:11;100462.22;;;31.93;32.21
38614;BME280;24369;49.480;8.488;2022-07-23T05:07:37;100492.00;;;32.15;32.93
38614;BME280;24369;49.480;8.488;2022-07-23T05:10:02;100615.03;;;32.87;32.79
38614;BME280;24369;49.480;8.488;2022-07-23T05:12:28;100507.69;;;31.93;33.68
38614;BME280;24369;49.480;8.488;2022-07-23T05:14:53;100351.59;;;31.02;34.06
38614;BME280;24369;49.480;8.488;2022-07-23T05:17:19;100556.78;;;32.03;34.57
38614;BME280;24369;49.480;8.488;2022-07-23T05:19:44;100625.41;;;32.32;34.72
38614;BME280;24369;49.480;8.488;2022-07-23T05:22:09;100567.47;;;32.10;34.30
38614;BME280;24369;49.480;8.488;2022-07-23T05:24:35;100354.75;;;30.89;34.82
38614;BME280;24369;49.480;8.488;2022-07-23T05:27:00;100390.75;;;31.33;34.13
38614;BME280;24369;49.480;8.488;2022-07-23T05:29:25;100544.91;;;31.82;34.34
38614;BME280;24369;49.480;8.488;2022-07-23T05:31:51;100554.34;;;32.01;34.32
38614;BME280;24369;49.480;8.488;2022-07-23T05:34:16;100430.97;;;31.31;34.50
38614;BME280;24369;49.480;8.488;2022-07-23T05:36:41;100573.75;;;32.10;35.10
38614;BME280;24369;49.480;8.488;2022-07-23T05:39:07;100191.06;;;29.63;35.14
38614;BME280;24369;49.480;8.488;2022-07-23T05:41:32;100470.19;;;31.63;34.96
38614;BME280;24369;49.480;8.488;2022-07-23T05:43:57;100563.31;;;31.65;35.15
38614;BME280;24369;49.480;8.488;2022-07-23T05:46:23;100045.31;;;28.88;35.19
38614;BME280;24369;49.480;8.488;2022-07-23T05:48:48;100109.63;;;29.41;34.97
38614;BME280;24369;49.480;8.488;2022-07-23T05:51:25;100570.06;;;32.37;34.71
38614;BME280;24369;49.480;8.488;2022-07-23T05:53:50;100572.78;;;31.89;34.76
38614;BME280;24369;49.480;8.488;2022-07-23T05:56:16;100494.88;;;31.88;34.95
38614;BME280;24369;49.480;8.488;2022-07-23T05:58:42;100566.63;;;32.52;34.68
38614;BME280;24369;49.480;8.488;2022-07-23T06:01:08;100601.03;;;32.15;34.72
38614;BME280;24369;49.480;8.488;2022-07-23T06:03:33;100517.91;;;32.18;34.81
38614;BME280;24369;49.480;8.488;2022-07-23T06:05:59;100563.44;;;32.17;34.59
38614;BME280;24369;49.480;8.488;2022-07-23T06:08:24;100382.78;;;31.27;34.49
38614;BME280;24369;49.480;8.488;2022-07-23T06:10:49;100229.63;;;30.52;34.54
38614;BME280;24369;49.480;8.488;2022-07-23T06:13:17;100492.25;;;32.03;34.19
38614;BME280;24369;49.480;8.488;2022-07-23T06:15:42;100600.06;;;32.37;34.26
38614;BME280;24369;49.480;8.488;2022-07-23T06:18:08;100187.72;;;29.83;34.15
38614;BME280;24369;49.480;8.488;2022-07-23T06:20:33;100356.97;;;30.92;34.13
38614;BME280;24369;49.480;8.488;2022-07-23T06:22:58;100542.16;;;32.14;34.34
38614;BME280;24369;49.480;8.488;2022-07-23T06:25:24;100361.06;;;30.95;34.20
38614;BME280;24369;49.480;8.488;2022-07-23T06:27:49;100212.81;;;30.23;34.15
38614;BME280;24369;49.480;8.488;2022-07-23T06:30:15;100513.00;;;32.15;34.10
38614;BME280;24369;49.480;8.488;2022-07-23T06:32:45;100626.81;;;32.92;33.98
38614;BME280;24369;49.480;8.488;2022-07-23T06:35:10;100250.28;;;30.53;33.35
38614;BME280;24369;49.480;8.488;2022-07-23T06:37:35;100493.81;;;31.99;32.81
38614;BME280;24369;49.480;8.488;2022-07-23T06:40:01;100309.91;;;30.32;33.43
38614;BME280;24369;49.480;8.488;2022-07-23T06:42:27;100343.72;;;30.74;34.21
38614;BME280;24369;49.480;8.488;2022-07-23T06:44:52;100508.44;;;31.83;33.68
38614;BME280;24369;49.480;8.488;2022-07-23T06:47:17;100346.00;;;30.55;34.20
38614;BME280;24369;49.480;8.488;2022-07-23T06:49:43;100506.72;;;31.72;34.52
38614;BME280;24369;49.480;8.488;2022-07-23T06:52:08;100644.34;;;32.49;34.40
38614;BME280;24369;49.480;8.488;2022-07-23T06:54:34;100450.19;;;31.47;34.73
38614;BME280;24369;49.480;8.488;2022-07-23T06:56:59;100613.16;;;32.40;35.15
38614;BME280;24369;49.480;8.488;2022-07-23T06:59:25;100406.16;;;31.23;34.59
38614;BME280;24369;49.480;8.488;2022-07-23T07:01:50;100609.31;;;32.36;34.82
38614;BME280;24369;49.480;8.488;2022-07-23T07:04:15;100476.66;;;31.56;34.58
38614;BME280;24369;49.480;8.488;2022-07-23T07:06:41;100365.38;;;30.91;34.42
38614;BME280;24369;49.480;8.488;2022-07-23T07:09:06;100624.88;;;32.35;34.44
38614;BME280;24369;49.480;8.488;2022-07-23T07:11:32;100058.41;;;28.96;34.42
38614;BME280;24369;49.480;8.488;2022-07-23T07:13:57;100338.97;;;30.59;34.62
38614;BME280;24369;49.480;8.488;2022-07-23T07:16:22;100355.59;;;30.35;35.08
38614;BME280;24369;49.480;8.488;2022-07-23T07:18:48;100532.72;;;31.52;34.70
38614;BME280;24369;49.480;8.488;2022-07-23T07:21:13;100651.56;;;32.28;34.34
38614;BME280;24369;49.480;8.488;2022-07-23T07:23:38;100694.47;;;32.43;33.73
38614;BME280;24369;49.480;8.488;2022-07-23T07:26:04;100655.97;;;32.39;33.51
38614;BME280;24369;49.480;8.488;2022-07-23T07:28:29;100391.50;;;30.92;33.13
38614;BME280;24369;49.480;8.488;2022-07-23T07:30:55;100537.25;;;31.74;32.69
38614;BME280;24369;49.480;8.488;2022-07-23T07:33:20;100353.09;;;31.68;31.88
38614;BME280;24369;49.480;8.488;2022-07-23T07:35:46;100525.94;;;33.64;30.55
38614;BME280;24369;49.480;8.488;2022-07-23T07:38:12;100667.44;;;34.38;30.62
38614;BME280;24369;49.480;8.488;2022-07-23T07:40:37;100480.03;;;33.25;30.01
38614;BME280;24369;49.480;8.488;2022-07-23T07:43:03;100611.09;;;33.45;29.49
38614;BME280;24369;49.480;8.488;2022-07-23T07:45:28;100445.84;;;32.77;29.66
38614;BME280;24369;49.480;8.488;2022-07-23T07:47:54;100550.75;;;33.37;29.28
38614;BME280;24369;49.480;8.488;2022-07-23T07:50:20;100704.56;;;34.70;29.05
38614;BME280;24369;49.480;8.488;2022-07-23T07:52:46;100698.91;;;34.26;28.63
38614;BME280;24369;49.480;8.488;2022-07-23T07:55:11;100594.19;;;34.00;27.87
38614;BME280;24369;49.480;8.488;2022-07-23T07:57:37;100693.81;;;35.10;27.44
38614;BME280;24369;49.480;8.488;2022-07-23T08:00:04;100548.84;;;34.04;28.14
38614;BME280;24369;49.480;8.488;2022-07-23T08:02:42;100518.53;;;33.75;27.87
38614;BME280;24369;49.480;8.488;2022-07-23T08:05:08;100585.97;;;34.25;27.74
38614;BME280;24369;49.480;8.488;2022-07-23T08:07:33;100437.47;;;33.19;28.01
38614;BME280;24369;49.480;8.488;2022-07-23T08:09:59;100686.00;;;34.47;28.82
38614;BME280;24369;49.480;8.488;2022-07-23T08:12:24;100705.19;;;34.31;28.67
38614;BME280;24369;49.480;8.488;2022-07-23T08:14:50;100556.72;;;33.08;28.67
38614;BME280;24369;49.480;8.488;2022-07-23T08:17:15;100709.00;;;34.46;28.54
38614;BME280;24369;49.480;8.488;2022-07-23T08:19:40;100707.91;;;34.36;28.94
38614;BME280;24369;49.480;8.488;2022-07-23T08:22:06;100536.56;;;33.55;28.34
38614;BME280;24369;49.480;8.488;2022-07-23T08:24:31;100615.00;;;33.70;28.88
38614;BME280;24369;49.480;8.488;2022-07-23T08:26:56;100561.44;;;33.49;28.28
38614;BME280;24369;49.480;8.488;2022-07-23T08:29:22;100526.44;;;33.40;28.24
38614;BME280;24369;49.480;8.488;2022-07-23T08:31:47;100713.63;;;34.50;28.26
38614;BME280;24369;49.480;8.488;2022-07-23T08:34:12;100513.88;;;33.09;27.80
38614;BME280;24369;49.480;8.488;2022-07-23T08:36:38;100708.44;;;34.44;28.07
38614;BME280;24369;49.480;8.488;2022-07-23T08:39:03;100714.47;;;34.56;28.32
38614;BME280;24369;49.480;8.488;2022-07-23T08:41:29;100712.56;;;34.62;27.71
38614;BME280;24369;49.480;8.488;2022-07-23T08:43:54;100717.41;;;34.75;27.51
38614;BME280;24369;49.480;8.488;2022-07-23T08:46:22;100606.22;;;33.99;27.23
38614;BME280;24369;49.480;8.488;2022-07-23T08:48:49;100645.03;;;33.96;27.21
38614;BME280;24369;49.480;8.488;2022-07-23T08:51:15;100570.16;;;33.91;27.45
38614;BME280;24369;49.480;8.488;2022-07-23T08:53:41;100572.59;;;34.08;27.52
38614;BME280;24369;49.480;8.488;2022-07-23T08:56:07;100607.94;;;34.80;26.96
38614;BME280;24369;49.480;8.488;2022-07-23T08:58:33;100572.84;;;35.37;25.62
38614;BME280;24369;49.480;8.488;2022-07-23T09:00:59;100640.31;;;37.40;23.09
38614;BME280;24369;49.480;8.488;2022-07-23T09:03:27;100709.34;;;37.14;23.55
38614;BME280;24369;49.480;8.488;2022-07-23T09:05:53;100288.47;;;34.22;24.54
38614;BME280;24369;49.480;8.488;2022-07-23T09:08:23;100757.78;;;36.81;24.63
38614;BME280;24369;49.480;8.488;2022-07-23T09:10:51;100712.25;;;37.04;24.60
38614;BME280;24369;49.480;8.488;2022-07-23T09:15:53;100675.41;;;36.04;24.96
38614;BME280;24369;49.480;8.488;2022-07-23T09:18:18;100097.94;;;31.99;25.74
38614;BME280;24369;49.480;8.488;2022-07-23T09:20:44;100556.81;;;34.70;26.17
38614;BME280;24369;49.480;8.488;2022-07-23T09:23:10;100704.66;;;35.74;26.32
38614;BME280;24369;49.480;8.488;2022-07-23T09:25:35;100580.22;;;34.92;26.51
38614;BME280;24369;49.480;8.488;2022-07-23T09:28:01;100699.59;;;35.92;26.12
38614;BME280;24369;49.480;8.488;2022-07-23T09:30:33;100702.56;;;35.61;26.78
38614;BME280;24369;49.480;8.488;2022-07-23T09:33:11;100696.97;;;35.76;26.87
38614;BME280;24369;49.480;8.488;2022-07-23T09:35:53;100625.22;;;35.25;26.65
38614;BME280;24369;49.480;8.488;2022-07-23T09:38:20;100327.66;;;33.42;26.41
38614;BME280;24369;49.480;8.488;2022-07-23T09:40:47;100707.94;;;35.76;26.85
38614;BME280;24369;49.480;8.488;2022-07-23T09:43:31;100678.03;;;35.36;26.93
38614;BME280;24369;49.480;8.488;2022-07-23T09:46:20;100719.63;;;35.43;26.87
38614;BME280;24369;49.480;8.488;2022-07-23T09:48:47;100477.22;;;34.02;26.58
38614;BME280;24369;49.480;8.488;2022-07-23T09:51:12;100709.16;;;35.60;26.62
38614;BME280;24369;49.480;8.488;2022-07-23T09:53:42;100606.22;;;34.99;26.59
38614;BME280;24369;49.480;8.488;2022-07-23T09:56:07;100497.19;;;33.82;26.68
38614;BME280;24369;49.480;8.488;2022-07-23T09:58:34;100736.28;;;34.81;26.96
38614;BME280;24369;49.480;8.488;2022-07-23T10:01:09;100668.22;;;35.29;26.50
38614;BME280;24369;49.480;8.488;2022-07-23T10:03:34;100434.16;;;33.37;26.96
38614;BME280;24369;49.480;8.488;2022-07-23T10:06:00;100713.56;;;35.56;26.35
38614;BME280;24369;49.480;8.488;2022-07-23T10:08:26;100721.75;;;35.61;26.73
38614;BME280;24369;49.480;8.488;2022-07-23T10:10:53;100609.75;;;35.05;26.30
38614;BME280;24369;49.480;8.488;2022-07-23T10:13:19;100604.22;;;35.15;26.87
38614;BME280;24369;49.480;8.488;2022-07-23T10:16:08;100581.72;;;35.18;26.65
38614;BME280;24369;49.480;8.488;2022-07-23T10:18:33;100712.94;;;36.04;25.97
38614;BME280;24369;49.480;8.488;2022-07-23T10:20:59;100645.28;;;35.60;26.32
38614;BME280;24369;49.480;8.488;2022-07-23T10:23:37;100449.66;;;34.53;26.28
38614;BME280;24369;49.480;8.488;2022-07-23T10:28:42;100657.78;;;35.76;26.55
38614;BME280;24369;49.480;8.488;2022-07-23T10:34:14;100627.53;;;35.57;25.93
38614;BME280;24369;49.480;8.488;2022-07-23T10:36:58;100417.34;;;34.10;26.15
38614;BME280;24369;49.480;8.488;2022-07-23T10:41:51;100697.28;;;36.09;25.89
38614;BME280;24369;49.480;8.488;2022-07-23T10:44:21;100631.38;;;35.85;25.97
38614;BME280;24369;49.480;8.488;2022-07-23T10:47:03;100270.75;;;33.65;25.44
38614;BME280;24369;49.480;8.488;2022-07-23T10:50:24;100690.63;;;36.44;25.57
38614;BME280;24369;49.480;8.488;2022-07-23T10:53:08;100682.19;;;36.65;25.28
38614;BME280;24369;49.480;8.488;2022-07-23T10:58:03;100701.06;;;35.79;26.03
38614;BME280;24369;49.480;8.488;2022-07-23T11:00:31;100689.69;;;35.96;26.04
38614;BME280;24369;49.480;8.488;2022-07-23T11:03:02;100690.56;;;36.26;25.96
38614;BME280;24369;49.480;8.488;2022-07-23T11:05:45;100634.91;;;35.91;25.54
38614;BME280;24369;49.480;8.488;2022-07-23T11:24:14;100658.88;;;36.09;25.11
38614;BME280;24369;49.480;8.488;2022-07-23T11:34:46;100684.31;;;36.44;24.52
38614;BME280;24369;49.480;8.488;2022-07-23T11:37:26;100486.66;;;35.24;24.54
38614;BME280;24369;49.480;8.488;2022-07-23T11:39:56;100571.97;;;35.81;24.99
38614;BME280;24369;49.480;8.488;2022-07-23T11:42:22;100736.09;;;36.56;24.39
38614;BME280;24369;49.480;8.488;2022-07-23T11:44:50;100677.13;;;36.53;24.47
38614;BME280;24369;49.480;8.488;2022-07-23T11:47:24;100555.50;;;35.81;24.47
38614;BME280;24369;49.480;8.488;2022-07-23T11:49:57;100615.66;;;35.96;24.37
38614;BME280;24369;49.480;8.488;2022-07-23T11:52:23;100568.34;;;35.51;24.49
38614;BME280;24369;49.480;8.488;2022-07-23T11:54:58;100658.53;;;36.45;24.15
38614;BME280;24369;49.480;8.488;2022-07-23T11:57:27;100603.16;;;35.85;24.52
38614;BME280;24369;49.480;8.488;2022-07-23T11:59:57;100232.56;;;33.55;24.47
38614;BME280;24369;49.480;8.488;2022-07-23T12:02:23;100624.88;;;36.10;24.22
38614;BME280;24369;49.480;8.488;2022-07-23T12:04:50;100654.00;;;36.59;24.68
38614;BME280;24369;49.480;8.488;2022-07-23T12:07:29;100593.75;;;36.49;24.21
38614;BME280;24369;49.480;8.488;2022-07-23T12:09:56;100588.13;;;36.11;24.18
38614;BME280;24369;49.480;8.488;2022-07-23T12:12:22;100633.81;;;36.50;24.42
38614;BME280;24369;49.480;8.488;2022-07-23T12:14:57;100483.38;;;35.56;24.58
38614;BME280;24369;49.480;8.488;2022-07-23T12:17:30;100590.13;;;36.00;24.90
38614;BME280;24369;49.480;8.488;2022-07-23T12:19:56;100646.78;;;36.87;24.15
38614;BME280;24369;49.480;8.488;2022-07-23T12:22:24;100669.50;;;36.45;24.38
38614;BME280;24369;49.480;8.488;2022-07-23T12:24:57;100645.91;;;36.49;24.42
38614;BME280;24369;49.480;8.488;2022-07-23T12:27:23;100650.88;;;36.42;23.97
38614;BME280;24369;49.480;8.488;2022-07-23T12:29:49;100379.00;;;34.65;23.70
38614;BME280;24369;49.480;8.488;2022-07-23T12:32:28;100509.97;;;35.56;24.12
38614;BME280;24369;49.480;8.488;2022-07-23T12:35:08;100659.25;;;36.27;24.28
38614;BME280;24369;49.480;8.488;2022-07-23T12:37:39;100585.78;;;35.65;24.61
38614;BME280;24369;49.480;8.488;2022-07-23T12:40:35;100674.28;;;36.00;24.96
38614;BME280;24369;49.480;8.488;2022-07-23T12:45:28;100508.28;;;34.31;27.50
38614;BME280;24369;49.480;8.488;2022-07-23T12:48:05;100668.56;;;35.62;27.20
38614;BME280;24369;49.480;8.488;2022-07-23T12:50:48;100514.00;;;34.90;27.46
38614;BME280;24369;49.480;8.488;2022-07-23T12:53:19;100676.44;;;35.29;27.57
38614;BME280;24369;49.480;8.488;2022-07-23T12:55:46;100593.25;;;35.15;27.13
38614;BME280;24369;49.480;8.488;2022-07-23T12:58:18;100664.00;;;35.47;26.54
38614;BME280;24369;49.480;8.488;2022-07-23T13:05:52;100500.66;;;34.78;26.00
38614;BME280;24369;49.480;8.488;2022-07-23T13:08:18;100657.03;;;35.99;25.52
38614;BME280;24369;49.480;8.488;2022-07-23T13:10:43;100433.94;;;34.19;26.16
38614;BME280;24369;49.480;8.488;2022-07-23T13:13:12;100383.19;;;33.98;25.82
38614;BME280;24369;49.480;8.488;2022-07-23T13:15:37;100663.84;;;36.07;25.52
38614;BME280;24369;49.480;8.488;2022-07-23T13:18:03;100331.53;;;33.96;25.43
38614;BME280;24369;49.480;8.488;2022-07-23T13:20:28;100573.34;;;35.78;24.96
38614;BME280;24369;49.480;8.488;2022-07-23T13:22:53;100546.00;;;34.94;24.82
38614;BME280;24369;49.480;8.488;2022-07-23T13:25:19;100511.75;;;34.47;25.64
38614;BME280;24369;49.480;8.488;2022-07-23T13:27:44;100677.34;;;35.64;25.96
38614;BME280;24369;49.480;8.488;2022-07-23T13:30:10;100473.69;;;34.51;25.09
38614;BME280;24369;49.480;8.488;2022-07-23T13:32:36;100475.50;;;34.76;25.04
38614;BME280;24369;49.480;8.488;2022-07-23T13:35:03;100631.25;;;36.00;24.58